Lorient South Brittany (Bretagne Sud) Airport

Airport
ICAO code: 
LFRH
IATA Code: 
LRT
Summary
ICAO Region: 
EUR
Territory: 
Location: 
Ploemeur, Bretagne
Serving: 
Morbihan
Elevation: 
160 ft
Coordinates: 
Aerial View: 
47° 45' 37.998" N, 3° 26' 24" W
Metar
Observation
LFRH 262330Z AUTO 09003KT 3000 BR NSC M01/M01 Q1035 TEMPO 0700 FG VV///
Station
Lann Bihoue
Date/Time
2022-01-26 23:30:00
Wind direction
90°
Wind speed
03 kts
Lowest cloud amount
nil significant cloud
Temperature
-1°C
Dew point
-1°C
Humidity
100%
QNH
1035 hPa
Weather condition
n/a

Runways

Designator Length Width Surface Rops
2/20 1670 45 CON Yes/Yes
7/25 2403 45 CON Yes/Yes
Airport map: 
Aerial View: 

Accidents and Serious Incidents at or in the vicinity of LFRH

SKYbrary Partners:

Safety knowledge contributed by: